• Join FlightAware (Why Join?)
  • Login
  • US Flag 
03:18AM EDT


 

Airport Tracker/Info


-or-


 

Live Flight TrackerFlight Track Log ✈ N819NN ✈ 02-May-2012 ✈ KDFW - KMCO

Flight Track Log - Related Links

Times and Time Zones

All times are in EDT time to prevent confusion due to time zone crossing. See the N819NN flight status page for this flight to view local times or setup timezone preferences in your user account.

Time Position Orientation Groundspeed Altitude Reporting Facility
EDT Latitude Longitude Course Direction KTS MPH feet Rate Location/Type
11:01AM 32.8664 -97.0318 North  Level FlightAware Approximate
11:01AM 32.8733 -97.0317 178° South 170 196 1,700  Level FAA TRACON SMA TRACON (SMA)
11:02AM 32.8392 -97.0306 179° South 181 208 2,500 1,500 Climbing FAA TRACON SMA TRACON (SMA)
11:03AM 32.7967 -97.0294 180° South 228 262 3,700 1,800 Climbing FAA TRACON SMA TRACON (SMA)
11:03AM 32.7550 -97.0294 165° South 244 281 4,900 1,800 Climbing FAA TRACON SMA TRACON (SMA)
11:04AM 32.7086 -97.0147 105° East 268 308 6,200 1,980 Climbing FAA TRACON SMA TRACON (SMA)
11:05AM 32.6878 -96.9236 84° East 295 339 8,200 2,160 Climbing FAA TRACON SMA TRACON (SMA)
11:06AM 32.6939 -96.8525 87° East 310 357 9,800 2,160 Climbing FAA TRACON SMA TRACON (SMA)
11:06AM 32.6950 -96.8233 84° East 304 350 10,400 1,320 Climbing FAA TRACON SMA TRACON (SMA)
11:06AM 32.6981 -96.7900 81° East 315 362 10,700 1,920 Climbing FAA TRACON SMA TRACON (SMA)
11:07AM 32.7039 -96.7475 79° East 335 386 11,700 2,820 Climbing FAA TRACON SMA TRACON (SMA)
11:07AM 32.7094 -96.7131 82° East 342 394 12,600 2,520 Climbing FAA TRACON SMA TRACON (SMA)
11:07AM 32.7136 -96.6789 79° East 343 395 13,400 2,580 Climbing FAA TRACON SMA TRACON (SMA)
11:08AM 32.7206 -96.6353 79° East 347 399 14,400 2,340 Climbing FAA TRACON SMA TRACON (SMA)
11:08AM 32.7264 -96.5992 81° East 354 407 15,000 2,220 Climbing FAA TRACON SMA TRACON (SMA)
11:08AM 32.7325 -96.5533 80° East 366 421 15,900 2,520 Climbing FAA TRACON SMA TRACON (SMA)
11:09AM 32.7381 -96.5156 80° East 373 429 16,700 2,400 Climbing FAA TRACON SMA TRACON (SMA)
11:09AM 32.7436 -96.4775 80° East 378 435 17,500 2,820 Climbing FAA TRACON SMA TRACON (SMA)
11:09AM 32.7506 -96.4294 81° East 382 440 18,600 2,700 Climbing FAA TRACON SMA TRACON (SMA)
11:10AM 32.7558 -96.3908 93° East 384 442 19,300 2,340 Climbing FAA TRACON SMA TRACON (SMA)
11:11AM 32.7488 -96.2211 91° East 404 465 22,400 2,220 Climbing FlightAware ADS-B
11:12AM 32.7473 -96.1235 92° East 415 478 23,800 1,260 Climbing FlightAware ADS-B
11:12AM 32.7457 -96.0519 92° East 422 486 24,000 180 Climbing FlightAware ADS-B
11:13AM 32.7441 -95.9818 91° East 421 484 24,000  Level FlightAware ADS-B
11:13AM 32.7417 -95.8712 91° East 418 481 24,000  Level FlightAware ADS-B
11:14AM 32.7401 -95.7995 91° East 417 480 24,000 600 Level FlightAware ADS-B
11:15AM 32.7379 -95.6995 91° East 423 487 24,800 1,260 Climbing FlightAware ADS-B
11:15AM 32.7361 -95.6177 92° East 429 494 25,700 1,740 Climbing FlightAware ADS-B
11:16AM 32.7330 -95.4947 91° East 435 501 27,300 1,560 Climbing FlightAware ADS-B
11:17AM 32.7322 -95.4403 92° East 433 498 27,900 1,380 Climbing Fort Worth Center
11:18AM 32.7266 -95.2463 92° East 455 524 29,700 1,560 Climbing FlightAware ADS-B
11:18AM 32.7243 -95.1671 92° East 455 524 30,600 1,620 Climbing FlightAware ADS-B
11:19AM 32.7212 -95.0762 92° East 453 521 31,600 1,560 Climbing FlightAware ADS-B
11:19AM 32.7189 -95.0008 92° East 452 520 32,400 1,560 Climbing FlightAware ADS-B
11:20AM 32.7160 -94.8965 93° East 449 517 33,500 1,440 Climbing FlightAware ADS-B
11:21AM 32.7128 -94.8285 102° East 448 516 34,100 960 Climbing FlightAware ADS-B
11:21AM 32.7011 -94.7635 109° East 450 518 34,400 720 Climbing FlightAware ADS-B
11:21AM 32.6933 -94.7368 112° Southeast 452 520 34,600 660 Climbing FlightAware ADS-B
11:22AM 32.6697 -94.6672 112° Southeast 457 526 34,900 360 Climbing FlightAware ADS-B
11:22AM 32.6417 -94.5849 112° Southeast 464 534 35,000 60 Climbing FlightAware ADS-B
11:23AM 32.6172 -94.5140 112° Southeast 464 534 35,000  Level FlightAware ADS-B
11:24AM 32.5560 -94.3331 112° Southeast 463 533 35,000  Level FlightAware ADS-B
11:25AM 32.5308 -94.2598 112° Southeast 464 534 35,000  Level FlightAware ADS-B
11:25AM 32.4958 -94.1587 112° Southeast 466 536 35,000  Level FlightAware ADS-B
11:26AM 32.4699 -94.0837 112° Southeast 466 536 35,000  Level FlightAware ADS-B
11:27AM 32.4413 -94.0014 112° Southeast 467 537 35,000  Level FlightAware ADS-B
11:27AM 32.4167 -93.9305 112° Southeast 468 539 35,000  Level FlightAware ADS-B
11:28AM 32.3920 -93.8589 112° Southeast 469 540 35,000  Level FlightAware ADS-B
11:28AM 32.3588 -93.7635 113° Southeast 469 540 35,000  Level FlightAware ADS-B
11:30AM 32.2956 -93.5875 113° Southeast 453 521 35,000  Level Houston Center
11:31AM 32.2456 -93.4469 112° Southeast 465 535 35,000  Level Houston Center
11:32AM 32.1972 -93.3061 113° Southeast 465 535 35,000  Level Houston Center
11:33AM 32.1467 -93.1631 113° Southeast 465 535 35,000  Level Houston Center
11:34AM 32.0961 -93.0203 114° Southeast 465 535 35,000  Level Houston Center
11:35AM 32.0433 -92.8778 113° Southeast 465 535 35,000 -60 Level Houston Center
11:36AM 31.9944 -92.7400 111° Southeast 465 535 34,900  Descending Houston Center
11:37AM 31.9475 -92.5928 106° East 465 535 35,000  Climbing Houston Center
11:38AM 31.8930 -92.3763 108° East 469 540 35,000  Level FlightAware ADS-B
11:39AM 31.8722 -92.3014 106° East 465 535 35,000  Level Houston Center
11:40AM 31.8372 -92.1619 101° East 460 529 35,000  Level Houston Center
11:41AM 31.8034 -91.9601 101° East 464 534 35,000  Level FlightAware ADS-B
11:41AM 31.7893 -91.8739 102° East 463 533 35,000  Level FlightAware ADS-B
11:42AM 31.7839 -91.8442 101° East 466 536 35,000  Level Houston Center
11:43AM 31.7475 -91.6198 101° East 463 533 35,000  Level FlightAware ADS-B
11:44AM 31.7130 -91.4133 101° East 463 533 35,000  Level FlightAware ADS-B
11:46AM 31.6853 -91.2514 100° East 466 536 35,000  Level Houston Center
11:47AM 31.6639 -91.1050 103° East 466 536 35,000  Level Houston Center
11:48AM 31.6383 -90.9711 101° East 466 536 35,000  Level Houston Center
11:49AM 31.6144 -90.8228 100° East 461 531 35,000  Level Houston Center
11:50AM 31.5928 -90.6792 101° East 461 531 35,000  Level Houston Center
11:51AM 31.5686 -90.5308 100° East 461 531 35,000  Level Houston Center
11:52AM 31.5464 -90.3872 100° East 456 525 35,000  Level Houston Center
11:53AM 31.5242 -90.2439 100° East 456 525 35,000 -60 Level Houston Center
11:54AM 31.5017 -90.0958 101° East 456 525 34,900 -60 Descending Houston Center
11:55AM 31.4769 -89.9525 99° East 451 519 34,900  Level Houston Center
11:56AM 31.4564 -89.8069 101° East 446 513 34,900  Level Houston Center
11:57AM 31.4311 -89.6542 99° East 446 513 35,000  Climbing Houston Center
11:58AM 31.4100 -89.5061 80° East 446 513 35,000  Level Houston Center
11:59AM 31.4306 -89.3622 78° East 439 505 35,000  Level Houston Center
12:00PM 31.4572 -89.2156 78° East 445 512 35,000  Level Houston Center
12:01PM 31.4836 -89.0689 80° East 450 518 35,000  Level Houston Center
12:02PM 31.5058 -88.9200 81° East 455 524 35,000  Level Houston Center
12:03PM 31.5256 -88.7683 88° East 461 531 35,000  Level Houston Center
12:04PM 31.5306 -88.6172 92° East 466 536 35,000  Level Houston Center
12:05PM 31.5269 -88.4639 100° East 466 536 35,000  Level Houston Center
12:06PM 31.5047 -88.3139 100° East 461 531 35,000  Level Houston Center
12:07PM 31.4819 -88.1639 100° East 461 531 35,000  Level Houston Center
12:09PM 31.4247 -87.7881 100° East 465 535 35,000  Level Jacksonville Center
12:10PM 31.4014 -87.6361 100° East 471 542 35,000  Level Jacksonville Center
12:11PM 31.3778 -87.4864 101° East 471 542 35,000  Level Jacksonville Center
12:12PM 31.3539 -87.3369 101° East 471 542 35,000  Level Jacksonville Center
12:13PM 31.3297 -87.1850 101° East 471 542 35,000  Level Jacksonville Center
12:14PM 31.3056 -87.0333 103° East 471 542 35,000  Level Jacksonville Center
12:15PM 31.2769 -86.8836 102° East 465 535 35,000  Level Jacksonville Center
12:16PM 31.2503 -86.7344 101° East 470 541 35,000  Level Jacksonville Center
12:17PM 31.2256 -86.5828 100° East 470 541 35,000  Level Jacksonville Center
12:18PM 31.2028 -86.4314 102° East 470 541 35,000  Level Jacksonville Center
12:19PM 31.1775 -86.2872 101° East 465 535 35,000  Level Jacksonville Center
12:20PM 31.1522 -86.1333 102° East 471 542 35,000  Level Jacksonville Center
12:21PM 31.1267 -85.9917 101° East 464 534 35,000  Level Jacksonville Center
12:22PM 31.1008 -85.8428 99° East 458 527 35,000 -60 Level Jacksonville Center
12:23PM 31.0811 -85.7014 102° East 453 521 34,900  Descending Jacksonville Center
12:24PM 31.0550 -85.5575 102° East 453 521 35,000  Climbing Jacksonville Center
12:25PM 31.0286 -85.4114 101° East 447 514 35,000  Level Jacksonville Center
12:26PM 31.0044 -85.2678 102° East 453 521 35,000  Level Jacksonville Center
12:27PM 30.9778 -85.1242 101° East 453 521 35,000  Level Jacksonville Center
12:28PM 30.9531 -84.9806 102° East 448 516 35,000  Level Jacksonville Center
12:29PM 30.9261 -84.8372 102° East 448 516 35,000  Level Jacksonville Center
12:30PM 30.9011 -84.6964 86° East 448 516 35,000  Level Jacksonville Center
12:31PM 30.9092 -84.5486 85° East 448 516 35,000  Level Jacksonville Center
12:32PM 30.9194 -84.4061 86° East 442 509 35,000  Level Jacksonville Center
12:33PM 30.9272 -84.2633 86° East 437 503 35,000  Level Jacksonville Center
12:34PM 30.9350 -84.1231 87° East 437 503 35,000  Level Jacksonville Center
12:35PM 30.9406 -83.9800 112° Southeast 442 509 35,000  Level Jacksonville Center
12:36PM 30.8914 -83.8417 115° Southeast 437 503 35,000  Level Jacksonville Center
12:37PM 30.8381 -83.7103 114° Southeast 437 503 35,000  Level Jacksonville Center
12:38PM 30.7886 -83.5817 113° Southeast 437 503 35,000 -120 Level Jacksonville Center
12:39PM 30.7456 -83.4656 114° Southeast 437 503 34,800 -1,620 Descending Jacksonville Center
12:40PM 30.6939 -83.3297 114° Southeast 442 509 31,800 -3,000 Descending Jacksonville Center
12:41PM 30.6442 -83.1992 120° Southeast 447 514 28,900 -2,400 Descending Jacksonville Center
12:42PM 30.5817 -83.0736 138° Southeast 440 506 27,000 -960 Descending Jacksonville Center
12:43PM 30.4919 -82.9794 139° Southeast 433 498 27,000 -240 Level Jacksonville Center
12:44PM 30.4003 -82.8878 138° Southeast 428 493 26,600 -720 Descending Jacksonville Center
12:45PM 30.3125 -82.7964 139° Southeast 433 498 25,600 -900 Descending Jacksonville Center
12:46PM 30.2247 -82.7075 140° Southeast 423 487 24,900 -300 Descending Jacksonville Center
12:47PM 30.1347 -82.6211 138° Southeast 423 487 25,000  Climbing Jacksonville Center
12:48PM 30.0467 -82.5303 141° Southeast 423 487 25,000  Level Jacksonville Center
12:49PM 29.9589 -82.4492 163° South 418 481 25,000 -60 Level Jacksonville Center
12:50PM 29.8481 -82.4089 162° South 410 472 24,900 -960 Descending Jacksonville Center
12:51PM 29.7394 -82.3689 163° South 410 472 23,100 -2,040 Descending Jacksonville Center
12:52PM 29.6347 -82.3311 157° South 410 472 20,900 -1,800 Descending Jacksonville Center
12:53PM 29.5261 -82.2792 154° Southeast 398 458 19,500 -1,380 Descending Jacksonville Center
12:54PM 29.4317 -82.2272 156° South 386 444 18,200 -1,200 Descending Jacksonville Center
12:55PM 29.3375 -82.1781 153° Southeast 374 430 17,100 -1,200 Descending Jacksonville Center
12:56PM 29.2475 -82.1261 156° South 374 430 15,900 -1,200 Descending Jacksonville Center
12:57PM 29.1594 -82.0817 155° Southeast 363 418 14,700 -1,200 Descending Jacksonville Center
12:58PM 29.0717 -82.0350 154° Southeast 358 412 13,600 -1,140 Descending Jacksonville Center
12:59PM 28.9919 -81.9906 155° Southeast 346 398 12,500 -1,080 Descending Jacksonville Center
01:00PM 28.9186 -81.9508 143° Southeast 319 367 11,500 -780 Descending Jacksonville Center
01:01PM 28.8619 -81.9017 106° East 280 322 11,000 -540 Descending Jacksonville Center
01:02PM 28.8447 -81.8331 104° East 226 260 10,500 -1,020 Descending Jacksonville Center
01:03PM 28.8294 -81.7622 106° East 221 254 9,000 -780 Descending Jacksonville Center
01:04PM 28.8142 -81.7006 100° East 221 254 9,000  Level Jacksonville Center
01:05PM 28.8031 -81.6297 105° East 221 254 9,000 -120 Level Jacksonville Center
01:06PM 28.7858 -81.5589 115° Southeast 221 254 8,800 -900 Descending Jacksonville Center
01:07PM 28.7600 -81.4953 122° Southeast 221 254 7,300 -1,500 Descending Jacksonville Center
01:08PM 28.7167 -81.4167 139° Southeast 226 260 5,400 -1,440 Descending Orlando TRACON
01:09PM 28.6667 -81.3667 168° South 217 250 4,100 -1,140 Descending Orlando TRACON
01:10PM 28.6000 -81.3500 168° South 207 238 3,200 -900 Descending Orlando TRACON